Time;durP1;ratioP1;P1;durP2;ratioP2;P2;SDS_P1;SDS_P2;PMS_P1;PMS_P2;Temp;Humidity;BMP_temperature;BMP_pressure;BME280_temperature;BME280_humidity;BME280_pressure;Samples;Min_cycle;Max_cycle;Signal;HPM_P1;HPM_P2
2022/06/17 00:02:09;;;;;;;0.30;0.30;;;27.00;80.50;;;;;;5060788;28;20488;-61
2022/06/17 00:04:37;;;;;;;0.40;0.40;;;27.00;80.70;;;;;;5053820;28;20060;-63
2022/06/17 00:07:13;;;;;;;1.40;0.93;;;27.00;80.70;;;;;;5050649;28;20049;-64
2022/06/17 00:09:41;;;;;;;0.20;0.20;;;27.00;80.80;;;;;;5056436;28;20484;-63
2022/06/17 00:12:11;;;;;;;;;;;27.00;80.80;;;;;;5062390;28;20048;-63
2022/06/17 00:17:25;;;;;;;0.20;0.20;;;27.00;80.90;;;;;;5056433;28;20518;-65
2022/06/17 00:19:53;;;;;;;0.22;0.22;;;27.00;80.80;;;;;;5064456;28;20059;-67
2022/06/17 00:22:20;;;;;;;0.20;0.20;;;27.00;80.90;;;;;;5065782;28;20045;-67
2022/06/17 00:24:50;;;;;;;0.43;0.43;;;27.00;80.90;;;;;;5061704;28;20539;-65
2022/06/17 00:27:18;;;;;;;0.90;0.40;;;27.00;80.90;;;;;;5063614;28;20052;-66
2022/06/17 00:29:46;;;;;;;0.25;0.25;;;27.00;81.00;;;;;;5059840;28;20059;-65
2022/06/17 00:32:13;;;;;;;0.20;0.20;;;27.00;81.10;;;;;;5066619;28;20057;-64
2022/06/17 00:34:41;;;;;;;1.10;0.40;;;27.00;81.10;;;;;;5066397;28;20511;-66
2022/06/17 00:37:14;;;;;;;0.40;0.40;;;27.00;81.20;;;;;;5057668;28;20491;-65
2022/06/17 00:39:41;;;;;;;0.40;0.40;;;27.00;81.20;;;;;;5058854;28;20055;-65
2022/06/17 00:42:13;;;;;;;0.55;0.55;;;27.00;81.30;;;;;;5080577;28;20063;-63
2022/06/17 00:44:50;;;;;;;0.28;0.28;;;27.00;81.60;;;;;;5059244;28;20053;-62
2022/06/17 00:47:37;;;;;;;0.30;0.30;;;27.00;81.50;;;;;;5075339;28;20468;-63
2022/06/17 00:50:13;;;;;;;0.20;0.20;;;27.00;81.50;;;;;;5058650;28;20057;-65
2022/06/17 00:52:50;;;;;;;3.20;1.27;;;27.00;81.60;;;;;;5065715;28;20039;-65
2022/06/17 00:55:43;;;;;;;0.30;0.30;;;27.00;81.80;;;;;;5065425;28;20461;-63
2022/06/17 00:58:21;;;;;;;0.55;0.55;;;27.00;81.70;;;;;;5059024;28;20068;-63
2022/06/17 01:00:53;;;;;;;0.90;0.40;;;26.60;73.70;;;;;;5064770;28;20041;-63
2022/06/17 01:03:25;;;;;;;0.30;0.30;;;26.30;74.10;;;;;;5084354;28;20152;-64
2022/06/17 01:06:08;;;;;;;0.47;0.47;;;26.30;74.50;;;;;;5064500;28;20056;-61
2022/06/17 01:11:29;;;;;;;0.40;0.40;;;26.60;73.30;;;;;;5061521;28;20053;-69
2022/06/17 01:13:59;;;;;;;0.50;0.50;;;26.50;72.50;;;;;;5031156;28;20048;-63
2022/06/17 01:16:33;;;;;;;0.73;0.73;;;26.30;71.80;;;;;;5069342;28;20044;-65
2022/06/17 01:19:30;;;;;;;0.35;0.35;;;26.20;71.80;;;;;;5087501;28;20052;-64
2022/06/17 01:22:20;;;;;;;0.40;0.40;;;26.10;71.60;;;;;;5048952;28;20052;-66
2022/06/17 01:24:49;;;;;;;0.40;0.40;;;26.00;71.40;;;;;;5052084;28;20055;-64
2022/06/17 01:27:19;;;;;;;0.50;0.50;;;25.90;71.40;;;;;;5064985;28;20060;-61
2022/06/17 01:29:48;;;;;;;0.63;0.63;;;25.90;71.40;;;;;;5051894;28;20055;-60
2022/06/17 01:32:18;;;;;;;0.30;0.30;;;25.80;71.40;;;;;;5072954;28;20503;-67
2022/06/17 01:34:45;;;;;;;0.80;0.80;;;25.70;71.40;;;;;;5070058;28;20053;-65
2022/06/17 01:37:13;;;;;;;0.60;0.60;;;25.60;71.40;;;;;;5062718;28;20052;-63
2022/06/17 01:39:41;;;;;;;0.50;0.50;;;25.50;71.70;;;;;;5064021;28;20071;-64
2022/06/17 01:42:10;;;;;;;0.50;0.50;;;25.50;71.70;;;;;;5054945;28;20044;-64
2022/06/17 01:44:41;;;;;;;0.55;0.55;;;25.50;71.70;;;;;;5056689;28;20032;-64
2022/06/17 01:47:17;;;;;;;1.27;1.17;;;25.40;71.80;;;;;;5053516;28;20045;-65
2022/06/17 01:49:54;;;;;;;0.40;0.40;;;25.40;71.70;;;;;;5059315;28;20049;-64
2022/06/17 01:52:56;;;;;;;0.77;0.77;;;25.30;71.80;;;;;;5057416;28;20055;-63
2022/06/17 01:55:36;;;;;;;0.63;0.63;;;25.30;71.90;;;;;;5052468;28;20052;-63
2022/06/17 01:58:23;;;;;;;0.90;0.90;;;25.30;71.90;;;;;;5056097;28;20049;-67
2022/06/17 02:00:51;;;;;;;1.25;0.50;;;25.20;72.00;;;;;;5075665;28;20052;-65
2022/06/17 02:03:22;;;;;;;;;;;25.20;72.10;;;;;;5051748;28;20052;-67
2022/06/17 02:06:07;;;;;;;2.92;1.30;;;25.10;72.20;;;;;;5047491;28;19932;-67
2022/06/17 02:08:36;;;;;;;0.50;0.50;;;25.10;72.40;;;;;;5050785;28;20049;-66
2022/06/17 02:11:07;;;;;;;0.45;0.45;;;25.10;72.50;;;;;;5066069;28;20053;-65
2022/06/17 02:13:41;;;;;;;0.82;0.82;;;25.00;72.60;;;;;;5057667;28;20052;-66
2022/06/17 02:16:47;;;;;;;0.30;0.30;;;25.00;72.70;;;;;;5060622;28;20044;-64
2022/06/17 02:19:30;;;;;;;0.68;0.68;;;24.90;73.00;;;;;;5045444;28;20055;-65
2022/06/17 02:22:24;;;;;;;1.30;1.20;;;25.00;73.40;;;;;;5061774;28;20060;-65
2022/06/17 02:25:00;;;;;;;;;;;25.20;73.30;;;;;;5060543;28;20063;-66
2022/06/17 02:27:31;;;;;;;1.35;0.85;;;25.40;73.10;;;;;;5073037;28;19925;-64
2022/06/17 02:30:00;;;;;;;0.77;0.77;;;25.50;72.80;;;;;;5055063;28;20476;-64
2022/06/17 02:32:31;;;;;;;0.40;0.40;;;25.60;72.60;;;;;;5068640;28;20056;-65
2022/06/17 02:35:10;;;;;;;0.30;0.30;;;25.60;72.30;;;;;;5065175;28;20048;-64
2022/06/17 02:37:38;;;;;;;0.63;0.63;;;25.60;72.20;;;;;;5077955;28;20520;-64
2022/06/17 02:40:21;;;;;;;;;;;25.60;72.10;;;;;;5053449;28;20044;-65
2022/06/17 02:42:49;;;;;;;1.40;1.17;;;25.60;72.10;;;;;;5060830;28;19933;-63
2022/06/17 02:45:22;;;;;;;0.55;0.55;;;25.60;72.00;;;;;;5057123;28;20063;-63
2022/06/17 02:47:50;;;;;;;2.30;1.25;;;25.60;71.90;;;;;;5058671;28;20152;-63
2022/06/17 02:50:20;;;;;;;1.98;1.05;;;25.60;71.90;;;;;;5041097;28;20522;-63
2022/06/17 02:52:51;;;;;;;0.45;0.45;;;25.70;71.90;;;;;;5030641;28;20056;-59
2022/06/17 02:55:39;;;;;;;0.60;0.60;;;25.70;71.90;;;;;;5053925;28;20080;-61
2022/06/17 02:58:34;;;;;;;0.60;0.60;;;25.60;71.70;;;;;;5048843;28;20068;-64
2022/06/17 03:01:03;;;;;;;0.40;0.40;;;25.70;71.70;;;;;;5079116;28;20059;-67
2022/06/17 03:03:31;;;;;;;0.50;0.50;;;25.70;71.70;;;;;;5059493;28;20048;-64
2022/06/17 03:05:58;;;;;;;0.52;0.52;;;25.70;71.80;;;;;;5055160;28;20076;-64
2022/06/17 03:08:29;;;;;;;1.48;1.10;;;25.60;71.70;;;;;;5061503;28;20040;-64
2022/06/17 03:11:00;;;;;;;2.90;1.25;;;25.60;71.70;;;;;;5084842;28;20421;-64
2022/06/17 03:13:39;;;;;;;1.13;0.55;;;25.60;71.80;;;;;;5056041;28;20060;-65
2022/06/17 03:16:11;;;;;;;0.60;0.60;;;25.60;71.90;;;;;;5059854;28;20052;-65
2022/06/17 03:18:40;;;;;;;0.47;0.47;;;25.60;71.90;;;;;;5079769;28;20052;-65
2022/06/17 03:21:07;;;;;;;0.65;0.65;;;25.60;71.90;;;;;;5057243;28;20049;-65
2022/06/17 03:24:18;;;;;;;0.38;0.38;;;25.60;71.90;;;;;;5054663;28;20053;-65
2022/06/17 03:26:54;;;;;;;0.73;0.73;;;25.60;71.90;;;;;;5053935;28;20056;-63
2022/06/17 03:29:25;;;;;;;1.05;1.00;;;25.60;72.00;;;;;;5069438;28;20394;-63
2022/06/17 03:32:09;;;;;;;0.95;0.95;;;25.60;72.00;;;;;;5090929;28;20138;-64
2022/06/17 03:34:49;;;;;;;0.28;0.28;;;25.60;71.90;;;;;;5049905;28;20045;-64
2022/06/17 03:37:17;;;;;;;1.45;0.80;;;25.60;72.20;;;;;;5066548;28;20032;-64
2022/06/17 03:39:49;;;;;;;0.63;0.63;;;25.60;72.10;;;;;;5068065;28;20056;-65
2022/06/17 03:42:16;;;;;;;3.30;1.35;;;25.70;72.50;;;;;;5067182;28;20057;-65
2022/06/17 03:44:55;;;;;;;1.23;1.13;;;25.70;72.70;;;;;;5051684;28;20056;-64
2022/06/17 03:47:43;;;;;;;0.20;0.20;;;25.70;72.90;;;;;;5067185;28;20048;-61
2022/06/17 03:50:40;;;;;;;0.70;0.70;;;25.70;73.00;;;;;;5066958;28;20411;-63
2022/06/17 03:53:17;;;;;;;0.70;0.70;;;25.70;73.20;;;;;;5062270;28;20427;-63
2022/06/17 03:55:45;;;;;;;0.70;0.70;;;25.70;73.40;;;;;;5067250;28;20053;-64
2022/06/17 03:58:17;;;;;;;0.40;0.40;;;25.70;73.40;;;;;;5051429;28;20044;-63
2022/06/17 04:01:04;;;;;;;1.55;1.23;;;25.80;73.60;;;;;;5068693;28;20055;-66
2022/06/17 04:03:33;;;;;;;;;;;25.80;73.70;;;;;;5063973;28;20136;-63
2022/06/17 04:06:11;;;;;;;0.68;0.68;;;25.80;73.80;;;;;;5084534;28;19932;-61
2022/06/17 04:09:02;;;;;;;0.50;0.50;;;25.80;74.00;;;;;;5045274;28;20064;-64
2022/06/17 04:11:37;;;;;;;1.30;0.98;;;25.80;74.10;;;;;;5065591;28;20053;-62
2022/06/17 04:14:29;;;;;;;0.60;0.60;;;25.80;74.10;;;;;;5044158;28;20041;-64
2022/06/17 04:17:17;;;;;;;0.80;0.80;;;25.80;74.20;;;;;;5067001;28;20467;-65
2022/06/17 04:19:53;;;;;;;0.40;0.40;;;25.80;74.40;;;;;;5063905;28;20060;-64
2022/06/17 04:22:27;;;;;;;0.40;0.40;;;25.80;74.40;;;;;;5050488;28;20052;-63
2022/06/17 04:25:19;;;;;;;2.40;1.33;;;25.80;74.40;;;;;;5065454;28;20063;-63
2022/06/17 04:27:56;;;;;;;0.63;0.63;;;25.80;74.40;;;;;;5062740;28;20045;-65
2022/06/17 04:30:29;;;;;;;0.82;0.82;;;25.80;74.50;;;;;;5061104;28;20438;-64
2022/06/17 04:33:01;;;;;;;0.60;0.60;;;25.80;74.60;;;;;;5075450;28;20384;-63
2022/06/17 04:35:28;;;;;;;1.55;0.77;;;25.90;74.70;;;;;;5068372;28;20044;-64
2022/06/17 04:37:56;;;;;;;0.32;0.32;;;25.90;74.70;;;;;;5066817;28;20059;-61
2022/06/17 04:40:57;;;;;;;2.40;1.02;;;25.90;74.70;;;;;;5047870;28;20048;-64
2022/06/17 04:43:50;;;;;;;0.47;0.47;;;25.90;74.70;;;;;;5055766;28;20053;-61
2022/06/17 04:46:44;;;;;;;0.85;0.85;;;25.90;74.80;;;;;;5045765;28;20446;-63
2022/06/17 04:49:24;;;;;;;0.88;0.88;;;26.00;75.40;;;;;;5070679;28;20067;-64
2022/06/17 04:51:59;;;;;;;0.35;0.35;;;25.90;74.80;;;;;;5062075;28;20049;-63
2022/06/17 04:54:28;;;;;;;0.60;0.60;;;26.00;75.00;;;;;;5066595;28;20057;-62
2022/06/17 04:57:29;;;;;;;0.47;0.40;;;26.00;75.00;;;;;;5045234;28;20055;-64
2022/06/17 05:00:16;;;;;;;0.45;0.45;;;26.00;75.00;;;;;;5033905;28;20052;-66
2022/06/17 05:02:46;;;;;;;1.75;1.38;;;26.00;75.00;;;;;;5075259;28;20044;-64
2022/06/17 05:05:45;;;;;;;0.80;0.80;;;26.00;75.10;;;;;;5049480;28;20146;-64
2022/06/17 05:08:22;;;;;;;0.65;0.65;;;26.00;75.40;;;;;;5064438;28;20048;-62
2022/06/17 05:11:02;;;;;;;0.55;0.55;;;26.00;75.40;;;;;;5068517;28;20037;-64
2022/06/17 05:13:37;;;;;;;4.90;2.35;;;26.00;75.70;;;;;;5077723;28;20444;-66
2022/06/17 05:16:08;;;;;;;0.60;0.60;;;26.00;75.50;;;;;;5057070;28;20048;-62
2022/06/17 05:18:36;;;;;;;1.10;0.77;;;26.00;75.50;;;;;;5055533;28;20049;-66
2022/06/17 05:21:22;;;;;;;10.77;1.42;;;26.00;75.50;;;;;;5044281;28;20060;-63
2022/06/17 05:23:56;;;;;;;0.57;0.57;;;26.00;75.50;;;;;;5059702;28;20373;-63
2022/06/17 05:26:26;;;;;;;0.82;0.70;;;26.00;75.80;;;;;;5035498;28;20052;-64
2022/06/17 05:28:55;;;;;;;0.40;0.40;;;26.00;75.90;;;;;;5050033;28;20053;-65
2022/06/17 05:31:26;;;;;;;0.50;0.50;;;26.00;76.10;;;;;;5041806;28;20048;-62
2022/06/17 05:34:00;;;;;;;0.73;0.70;;;26.00;76.30;;;;;;5060068;28;20063;-64
2022/06/17 05:36:28;;;;;;;0.30;0.30;;;26.00;76.50;;;;;;5051603;28;20036;-64
2022/06/17 05:38:56;;;;;;;0.30;0.30;;;26.00;76.60;;;;;;5083068;28;20045;-63
2022/06/17 05:41:24;;;;;;;0.40;0.40;;;26.00;76.30;;;;;;5049695;28;20052;-61
2022/06/17 05:43:54;;;;;;;0.45;0.45;;;25.70;74.60;;;;;;5048513;28;20063;-63
2022/06/17 05:46:47;;;;;;;0.95;0.68;;;25.20;74.20;;;;;;5039839;28;20332;-62
2022/06/17 05:49:23;;;;;;;0.75;0.75;;;24.80;74.60;;;;;;5072080;28;20614;-62
2022/06/17 05:52:00;;;;;;;1.48;1.20;;;24.70;74.20;;;;;;5059205;28;20045;-64
2022/06/17 05:54:48;;;;;;;1.25;0.80;;;24.80;74.50;;;;;;5063806;28;20525;-64
2022/06/17 05:57:17;;;;;;;6.43;1.15;;;24.70;74.20;;;;;;5054103;28;20053;-62
2022/06/17 05:59:44;;;;;;;1.35;0.80;;;24.80;74.60;;;;;;5050234;28;20051;-65
2022/06/17 06:02:15;;;;;;;2.92;1.95;;;24.80;74.20;;;;;;5057482;28;20048;-61
2022/06/17 06:05:04;;;;;;;0.50;0.50;;;24.80;73.50;;;;;;5057462;28;20359;-61
2022/06/17 06:07:36;;;;;;;0.55;0.55;;;24.60;73.50;;;;;;5057840;28;20052;-61
2022/06/17 06:10:04;;;;;;;0.63;0.63;;;24.80;74.00;;;;;;5071503;28;20044;-64
2022/06/17 06:15:22;;;;;;;2.42;1.13;;;25.00;74.60;;;;;;5064042;28;20470;-66
2022/06/17 06:18:19;;;;;;;0.45;0.45;;;25.10;73.80;;;;;;5066935;28;20056;-65
2022/06/17 06:20:47;;;;;;;0.73;0.73;;;25.30;73.70;;;;;;5047313;28;20381;-66
2022/06/17 06:23:22;;;;;;;0.63;0.63;;;25.30;74.00;;;;;;5080916;28;20053;-66
2022/06/17 06:25:50;;;;;;;1.65;1.15;;;25.40;75.30;;;;;;5057783;28;20064;-61
2022/06/17 06:28:23;;;;;;;0.80;0.80;;;25.40;75.60;;;;;;5060755;28;20531;-62
2022/06/17 06:31:23;;;;;;;0.30;0.30;;;25.40;75.00;;;;;;5047625;28;20048;-63
2022/06/17 06:33:51;;;;;;;0.40;0.40;;;25.50;74.70;;;;;;5059869;28;20048;-63
2022/06/17 06:36:19;;;;;;;0.70;0.70;;;25.50;74.60;;;;;;5080343;28;20067;-67
2022/06/17 06:38:47;;;;;;;12.80;2.15;;;25.60;74.80;;;;;;5065686;28;20120;-64
2022/06/17 06:41:17;;;;;;;0.88;0.82;;;25.60;74.70;;;;;;5064738;28;20147;-66
2022/06/17 06:43:45;;;;;;;0.30;0.30;;;25.60;75.70;;;;;;5047256;28;20483;-65
2022/06/17 06:46:50;;;;;;;1.25;1.15;;;25.70;77.40;;;;;;5064735;28;20450;-61
2022/06/17 06:49:41;;;;;;;0.93;0.90;;;25.70;77.80;;;;;;5054798;28;20060;-64
2022/06/17 06:52:08;;;;;;;0.70;0.60;;;25.70;78.80;;;;;;5053950;28;20395;-65
2022/06/17 06:54:35;;;;;;;0.38;0.38;;;25.70;78.60;;;;;;5064950;28;20041;-66
2022/06/17 06:57:06;;;;;;;0.73;0.73;;;25.70;78.00;;;;;;5054725;28;20094;-62
2022/06/17 06:59:53;;;;;;;;;;;25.80;77.70;;;;;;5062648;28;20040;-64
2022/06/17 07:02:21;;;;;;;1.30;1.17;;;25.80;77.60;;;;;;5061920;28;20007;-65
2022/06/17 07:04:48;;;;;;;0.45;0.45;;;25.80;77.60;;;;;;5054875;28;20045;-63
2022/06/17 07:07:16;;;;;;;2.60;1.60;;;25.80;77.50;;;;;;5041927;28;20055;-65
2022/06/17 07:09:43;;;;;;;0.40;0.40;;;25.80;77.40;;;;;;5066823;28;20052;-63
2022/06/17 07:12:11;;;;;;;0.85;0.85;;;25.80;77.50;;;;;;5066840;28;20043;-64
2022/06/17 07:14:39;;;;;;;0.98;0.93;;;25.80;78.00;;;;;;5065426;28;20036;-64
2022/06/17 07:17:07;;;;;;;0.47;0.47;;;25.90;78.40;;;;;;5061807;28;20051;-63
2022/06/17 07:19:34;;;;;;;0.35;0.35;;;25.90;78.60;;;;;;5063646;28;20482;-65
2022/06/17 07:22:02;;;;;;;2.22;1.05;;;25.80;79.00;;;;;;5063148;28;20041;-64
2022/06/17 07:24:29;;;;;;;0.30;0.30;;;25.90;79.30;;;;;;5057810;28;20409;-60
2022/06/17 07:26:57;;;;;;;1.75;1.60;;;25.90;79.20;;;;;;5063464;28;20049;-62
2022/06/17 07:29:24;;;;;;;4.38;1.90;;;25.90;79.50;;;;;;5065466;28;20051;-62
2022/06/17 07:31:51;;;;;;;1.30;1.20;;;25.90;79.50;;;;;;5053907;28;20048;-60
2022/06/17 07:34:19;;;;;;;6.47;1.30;;;25.90;79.50;;;;;;5073617;28;20418;-62
2022/06/17 07:42:18;;;;;;;2.85;1.58;;;26.00;84.00;;;;;;5067666;28;20053;-61
2022/06/17 07:44:46;;;;;;;1.98;1.48;;;26.00;85.00;;;;;;5054085;28;20048;-62
2022/06/17 07:47:17;;;;;;;5.82;2.05;;;26.00;84.70;;;;;;5051127;28;20053;-63
2022/06/17 07:49:45;;;;;;;1.27;0.75;;;26.10;85.00;;;;;;5061843;28;20052;-63
2022/06/17 07:52:13;;;;;;;1.58;1.00;;;26.10;85.60;;;;;;5069224;28;20496;-62
2022/06/17 07:54:41;;;;;;;0.57;0.57;;;26.10;86.10;;;;;;5073106;28;20537;-64
2022/06/17 07:57:10;;;;;;;;;;;26.10;87.10;;;;;;5067269;28;20041;-64
2022/06/17 07:59:37;;;;;;;1.02;0.63;;;26.40;86.90;;;;;;5076119;28;19920;-61
2022/06/17 08:02:06;;;;;;;0.40;0.40;;;27.10;85.80;;;;;;5071410;28;20044;-70
2022/06/17 08:04:35;;;;;;;0.80;0.65;;;27.50;89.80;;;;;;5091339;28;20064;-63
2022/06/17 08:07:04;;;;;;;2.00;1.15;;;27.10;87.60;;;;;;5073276;28;20053;-65
2022/06/17 08:09:31;;;;;;;2.05;1.02;;;26.90;88.80;;;;;;5080497;28;20041;-65
2022/06/17 08:11:59;;;;;;;1.15;0.93;;;26.70;90.80;;;;;;5075956;28;20040;-63
2022/06/17 08:14:26;;;;;;;;;;;26.60;91.80;;;;;;5078769;28;20044;-66
2022/06/17 08:16:54;;;;;;;;;;;26.50;93.10;;;;;;5071708;28;19950;-65
2022/06/17 08:19:21;;;;;;;0.50;0.50;;;26.50;94.10;;;;;;5071395;28;19963;-59
2022/06/17 08:21:49;;;;;;;0.40;0.40;;;26.40;94.70;;;;;;5069029;28;20695;-61
2022/06/17 08:24:25;;;;;;;2.30;0.93;;;26.40;94.60;;;;;;5065761;28;20481;-65
2022/06/17 08:26:53;;;;;;;2.45;2.05;;;26.40;95.00;;;;;;5070008;28;20278;-62
2022/06/17 08:29:20;;;;;;;2.63;0.85;;;26.40;95.00;;;;;;5049951;28;20056;-62
2022/06/17 08:34:54;;;;;;;1.55;1.20;;;26.40;94.70;;;;;;5072300;28;20491;-66
2022/06/17 08:37:21;;;;;;;0.60;0.60;;;26.50;94.80;;;;;;5055837;28;20056;-65
2022/06/17 08:39:50;;;;;;;1.13;0.90;;;26.40;94.60;;;;;;5070522;28;20048;-61
2022/06/17 08:42:54;;;;;;;0.50;0.50;;;26.40;94.30;;;;;;5055721;28;20052;-60
2022/06/17 08:45:47;;;;;;;0.50;0.50;;;26.40;94.30;;;;;;5066838;28;20048;-59
2022/06/17 08:48:22;;;;;;;0.38;0.38;;;26.40;94.30;;;;;;5062662;28;20356;-61
2022/06/17 08:50:49;;;;;;;0.40;0.40;;;26.50;94.60;;;;;;5067892;28;20049;-61
2022/06/17 08:53:17;;;;;;;;;;;26.50;94.70;;;;;;5072861;28;20040;-65
2022/06/17 08:55:59;;;;;;;1.45;1.15;;;26.50;94.60;;;;;;5066713;28;19921;-57
2022/06/17 08:58:51;;;;;;;1.13;0.98;;;26.50;94.30;;;;;;5051398;28;20052;-63
2022/06/17 09:01:45;;;;;;;0.60;0.60;;;26.50;93.80;;;;;;5073614;28;20064;-62
2022/06/17 09:04:34;;;;;;;0.45;0.45;;;26.50;93.60;;;;;;5068537;28;20063;-59
2022/06/17 09:07:26;;;;;;;0.52;0.52;;;26.50;94.00;;;;;;5061969;28;20044;-65
2022/06/17 09:10:12;;;;;;;0.60;0.60;;;26.60;94.00;;;;;;5036902;28;20465;-62
2022/06/17 09:13:04;;;;;;;4.88;2.05;;;26.60;94.10;;;;;;5044422;28;20037;-61
2022/06/17 09:15:42;;;;;;;2.88;1.10;;;26.60;94.10;;;;;;5041060;28;20040;-59
2022/06/17 09:18:12;;;;;;;;;;;26.60;94.10;;;;;;5046436;28;20045;-60
2022/06/17 09:20:43;;;;;;;0.50;0.50;;;26.60;94.10;;;;;;5044188;28;19955;-58
2022/06/17 09:23:17;;;;;;;0.20;0.20;;;26.60;93.70;;;;;;5044118;28;20052;-58
2022/06/17 09:25:46;;;;;;;1.73;1.52;;;26.60;93.40;;;;;;5044571;28;20072;-65
2022/06/17 09:28:35;;;;;;;0.22;0.22;;;26.60;93.50;;;;;;5060781;28;20416;-59
2022/06/17 09:31:18;;;;;;;0.65;0.65;;;26.60;93.20;;;;;;5046024;28;20060;-61
2022/06/17 09:34:08;;;;;;;0.40;0.40;;;26.60;93.00;;;;;;5071913;28;20044;-59
2022/06/17 09:36:47;;;;;;;2.40;1.60;;;26.60;92.70;;;;;;5044676;28;20492;-60
2022/06/17 09:39:21;;;;;;;0.47;0.47;;;26.50;92.40;;;;;;5044406;28;20044;-57
2022/06/17 09:41:58;;;;;;;0.75;0.75;;;26.60;90.90;;;;;;5047658;28;20075;-59
2022/06/17 09:44:44;;;;;;;0.38;0.38;;;26.60;90.70;;;;;;5044172;28;20056;-54
2022/06/17 09:47:24;;;;;;;0.68;0.68;;;26.60;90.30;;;;;;5077652;28;20400;-58
2022/06/17 09:50:01;;;;;;;0.80;0.80;;;26.60;90.40;;;;;;5049704;28;20047;-59
2022/06/17 09:52:42;;;;;;;0.30;0.30;;;26.50;90.30;;;;;;5050816;28;20051;-59
2022/06/17 09:55:16;;;;;;;0.38;0.38;;;26.50;90.00;;;;;;5055555;28;20045;-58
2022/06/17 09:57:48;;;;;;;0.40;0.40;;;26.60;90.00;;;;;;5029554;28;20064;-59
2022/06/17 10:00:22;;;;;;;2.53;0.95;;;26.60;90.00;;;;;;5042835;28;20046;-59
2022/06/17 10:02:53;;;;;;;2.40;0.93;;;26.50;90.00;;;;;;5048574;28;20473;-58
2022/06/17 10:05:39;;;;;;;0.50;0.50;;;26.50;90.20;;;;;;5062599;28;20064;-58
2022/06/17 10:08:17;;;;;;;2.33;1.10;;;26.50;90.30;;;;;;5038732;28;20053;-60
2022/06/17 10:10:57;;;;;;;0.20;0.20;;;26.50;90.40;;;;;;5046301;28;20055;-57
2022/06/17 10:13:37;;;;;;;0.30;0.30;;;26.50;90.50;;;;;;5040176;28;20045;-59
2022/06/17 10:19:30;;;;;;;2.50;1.95;;;26.60;91.20;;;;;;5043649;28;20056;-55
2022/06/17 10:22:19;;;;;;;2.15;0.73;;;26.50;91.60;;;;;;5049518;28;20155;-58
2022/06/17 10:24:53;;;;;;;1.20;0.98;;;26.60;91.70;;;;;;5041575;28;20053;-59
2022/06/17 10:27:39;;;;;;;0.60;0.60;;;26.60;92.00;;;;;;5044328;28;20040;-59
2022/06/17 10:30:29;;;;;;;2.90;1.25;;;26.60;92.40;;;;;;5042383;28;20154;-58
2022/06/17 10:32:57;;;;;;;0.40;0.40;;;26.60;92.50;;;;;;5044435;28;20436;-56
2022/06/17 10:35:35;;;;;;;1.08;0.98;;;26.60;92.50;;;;;;5043888;28;20053;-56
2022/06/17 10:38:07;;;;;;;0.40;0.40;;;26.60;92.40;;;;;;5041354;28;20052;-58
2022/06/17 10:40:38;;;;;;;0.50;0.50;;;26.60;92.40;;;;;;5049295;28;20052;-57
2022/06/17 10:43:10;;;;;;;0.77;0.63;;;26.60;92.60;;;;;;5048217;28;20396;-57
2022/06/17 10:45:38;;;;;;;0.30;0.30;;;26.60;92.40;;;;;;5039052;28;20529;-54
2022/06/17 10:48:14;;;;;;;5.68;2.10;;;26.60;92.10;;;;;;5046266;28;20097;-56
2022/06/17 10:50:41;;;;;;;0.53;0.53;;;26.60;91.90;;;;;;5045770;28;20481;-55
2022/06/17 10:53:24;;;;;;;1.75;1.30;;;26.50;91.70;;;;;;5041476;28;20041;-57
2022/06/17 10:55:57;;;;;;;5.32;2.95;;;26.60;92.00;;;;;;5043538;28;20120;-57
2022/06/17 10:58:27;;;;;;;1.35;1.08;;;26.60;91.80;;;;;;5044175;28;20056;-56
2022/06/17 11:01:01;;;;;;;0.52;0.52;;;26.70;91.60;;;;;;5042354;28;20053;-58
2022/06/17 11:03:40;;;;;;;1.38;1.05;;;26.70;91.50;;;;;;5043480;28;20033;-56
2022/06/17 11:06:18;;;;;;;4.13;2.00;;;26.70;91.40;;;;;;5060141;28;20079;-58
2022/06/17 11:08:49;;;;;;;0.80;0.80;;;26.70;91.40;;;;;;5062549;28;20055;-58
2022/06/17 11:12:04;;;;;;;3.30;1.40;;;26.60;91.30;;;;;;5074097;28;20059;-60
2022/06/17 11:14:38;;;;;;;3.67;1.80;;;26.60;90.90;;;;;;5066359;28;20056;-58
2022/06/17 11:17:20;;;;;;;0.65;0.65;;;26.60;90.50;;;;;;5065674;28;20048;-57
2022/06/17 11:19:52;;;;;;;3.47;1.55;;;26.60;90.30;;;;;;5062515;28;20049;-55
2022/06/17 11:22:36;;;;;;;5.32;1.70;;;26.60;89.80;;;;;;5068862;28;20045;-54
2022/06/17 11:25:35;;;;;;;0.40;0.40;;;26.50;88.60;;;;;;5056140;28;20060;-54
2022/06/17 11:28:10;;;;;;;0.28;0.28;;;26.50;88.10;;;;;;5055807;28;20060;-58
2022/06/17 11:31:06;;;;;;;1.73;1.50;;;26.50;88.30;;;;;;5061424;28;20041;-58
2022/06/17 11:33:52;;;;;;;0.60;0.60;;;26.60;87.50;;;;;;5050192;28;20075;-53
2022/06/17 11:36:33;;;;;;;1.95;1.75;;;26.50;87.20;;;;;;5064386;28;20059;-57
2022/06/17 11:39:33;;;;;;;0.52;0.52;;;26.60;87.10;;;;;;5052591;28;20071;-58
2022/06/17 11:42:14;;;;;;;3.20;1.55;;;26.60;87.00;;;;;;5071347;28;20049;-57
2022/06/17 11:44:55;;;;;;;1.38;1.13;;;26.50;86.80;;;;;;5061799;28;20539;-57
2022/06/17 11:47:27;;;;;;;14.93;1.38;;;26.50;86.70;;;;;;5045839;28;20056;-58
2022/06/17 11:49:59;;;;;;;3.75;1.85;;;26.50;86.70;;;;;;5066508;28;20060;-57
2022/06/17 11:52:32;;;;;;;0.40;0.40;;;26.50;86.70;;;;;;5053369;28;20040;-59
2022/06/17 11:55:00;;;;;;;0.30;0.30;;;26.50;86.70;;;;;;5063493;28;20150;-57
2022/06/17 11:57:31;;;;;;;0.70;0.50;;;26.50;86.70;;;;;;5040106;28;20048;-60
2022/06/17 12:00:03;;;;;;;0.77;0.77;;;26.50;86.70;;;;;;5048376;28;20055;-60
2022/06/17 12:02:57;;;;;;;0.77;0.77;;;26.50;86.60;;;;;;5066627;28;20443;-56
2022/06/17 12:05:28;;;;;;;0.40;0.40;;;26.50;86.70;;;;;;5064566;28;20059;-58
2022/06/17 12:08:07;;;;;;;0.40;0.40;;;26.60;86.70;;;;;;5057891;28;20059;-57
2022/06/17 12:10:49;;;;;;;2.28;1.50;;;26.50;86.70;;;;;;5062418;28;20476;-59
2022/06/17 12:13:26;;;;;;;0.60;0.60;;;26.50;86.60;;;;;;5056190;28;20045;-59
2022/06/17 12:16:23;;;;;;;0.75;0.63;;;26.50;86.60;;;;;;5051441;28;20045;-56
2022/06/17 12:18:56;;;;;;;0.50;0.50;;;26.60;86.60;;;;;;5065905;28;20048;-54
2022/06/17 12:21:51;;;;;;;0.35;0.35;;;26.60;86.70;;;;;;5061580;28;20052;-57
2022/06/17 12:24:27;;;;;;;15.98;2.47;;;26.60;86.60;;;;;;5057821;28;20402;-58
2022/06/17 12:27:10;;;;;;;0.40;0.40;;;26.60;86.60;;;;;;5051736;28;20112;-60
2022/06/17 12:30:01;;;;;;;0.98;0.80;;;26.60;86.60;;;;;;5061187;28;20427;-57
2022/06/17 12:32:41;;;;;;;0.40;0.40;;;26.60;86.60;;;;;;5067063;28;20072;-55
2022/06/17 12:35:30;;;;;;;2.42;1.45;;;26.60;86.50;;;;;;5057449;28;20386;-58
2022/06/17 12:38:03;;;;;;;1.60;0.90;;;26.60;86.50;;;;;;5070022;28;20055;-58
2022/06/17 12:40:45;;;;;;;0.50;0.50;;;26.60;86.40;;;;;;5057214;28;20415;-55
2022/06/17 12:43:37;;;;;;;0.50;0.50;;;26.60;86.40;;;;;;5064591;28;20063;-58
2022/06/17 12:46:26;;;;;;;0.57;0.57;;;26.60;86.40;;;;;;5052450;28;20125;-59
2022/06/17 12:53:14;;;;;;;0.50;0.50;;;26.60;86.40;;;;;;5055771;28;20491;-59
2022/06/17 12:55:09;;;;;;;0.38;0.38;;;26.60;86.30;;;;;;5057053;28;20049;-58
2022/06/17 12:58:10;;;;;;;0.30;0.30;;;26.70;86.30;;;;;;5070883;28;20055;-58
2022/06/17 13:00:47;;;;;;;0.32;0.32;;;26.70;86.30;;;;;;5061189;28;20063;-53
2022/06/17 13:03:41;;;;;;;0.38;0.38;;;26.70;86.20;;;;;;5052213;28;20484;-57
2022/06/17 13:06:34;;;;;;;0.52;0.52;;;26.70;86.20;;;;;;5064002;28;20064;-55
2022/06/17 13:09:34;;;;;;;0.30;0.30;;;26.70;86.10;;;;;;5051939;28;20064;-58
2022/06/17 13:12:15;;;;;;;0.40;0.40;;;26.70;86.00;;;;;;5032275;28;20067;-58
2022/06/17 13:15:30;;;;;;;0.65;0.65;;;26.80;86.00;;;;;;5058981;28;20052;-58
2022/06/17 13:18:11;;;;;;;0.32;0.32;;;26.80;85.90;;;;;;5041221;28;20425;-59
2022/06/17 13:20:47;;;;;;;0.20;0.20;;;26.90;85.90;;;;;;5062552;28;20306;-55
2022/06/17 13:23:25;;;;;;;0.20;0.20;;;26.90;85.80;;;;;;5052299;28;20320;-58
2022/06/17 13:26:11;;;;;;;0.75;0.55;;;26.90;85.60;;;;;;5052309;28;20071;-55
2022/06/17 13:28:55;;;;;;;0.95;0.80;;;27.00;85.60;;;;;;5054554;28;20055;-57
2022/06/17 13:31:32;;;;;;;0.43;0.43;;;27.00;85.40;;;;;;5061464;28;20051;-59
2022/06/17 13:34:05;;;;;;;1.35;0.80;;;27.10;85.30;;;;;;5075088;28;20151;-59
2022/06/17 13:37:12;;;;;;;1.85;1.38;;;27.10;85.20;;;;;;5056062;28;20053;-59
2022/06/17 13:39:54;;;;;;;0.70;0.65;;;27.10;85.10;;;;;;5061696;28;20411;-61
2022/06/17 13:42:23;;;;;;;0.20;0.20;;;27.20;84.90;;;;;;5059997;28;20483;-58
2022/06/17 13:44:59;;;;;;;1.70;0.95;;;27.20;84.70;;;;;;5053007;28;20048;-59
2022/06/17 13:47:44;;;;;;;1.95;1.27;;;27.30;84.60;;;;;;5058629;28;20044;-59
2022/06/17 13:50:37;;;;;;;0.90;0.57;;;27.30;84.50;;;;;;5058103;28;20041;-57
2022/06/17 13:53:21;;;;;;;0.30;0.30;;;27.30;84.40;;;;;;5050588;28;20045;-58
2022/06/17 13:55:58;;;;;;;0.50;0.50;;;27.40;84.10;;;;;;5062189;28;20513;-54
2022/06/17 13:58:33;;;;;;;2.05;1.30;;;27.40;84.00;;;;;;5050499;28;20055;-59
2022/06/17 14:01:28;;;;;;;0.75;0.57;;;27.40;83.90;;;;;;5059904;28;20049;-56
2022/06/17 14:03:58;;;;;;;0.20;0.20;;;27.40;83.80;;;;;;5048502;28;20064;-53
2022/06/17 14:06:31;;;;;;;0.40;0.40;;;27.40;83.70;;;;;;5065534;28;20063;-58